This is the latest recevied weather packets stored in our database for station/object KA3WVU. If no packets are shown the sender has not sent any weather packets the latest 1 day(s).
| Time | Temp. | Humidity | Pressure | Rain* | Wind** | Luminosity | Snow |
|---|---|---|---|---|---|---|---|
| 1778100010 | 7.78° C | 95% | 1009.4 hPa | 0 mm | - | 44 W/m² | - |
| 1778099102 | 8.33° C | 91% | 1009.5 hPa | 0 mm | - | 29 W/m² | - |
| 1778097579 | 8.89° C | 94% | 1008.9 hPa | 0 mm | - | 36 W/m² | - |
| 1778097276 | 8.89° C | 94% | 1009 hPa | 0 mm | - | 40 W/m² | - |
| 1778096670 | 8.89° C | 94% | 1008.8 hPa | 0 mm | - | 51 W/m² | - |
| 1778096367 | 8.89° C | 95% | 1008.6 hPa | 0 mm | - | 49 W/m² | - |
| 1778095154 | 8.89° C | 96% | 1008.5 hPa | 0 mm | - | 166 W/m² | - |
| 1778094244 | 8.89° C | 96% | 1008.4 hPa | 0 mm | - | 92 W/m² | - |
| 1778093941 | 8.89° C | 97% | 1008.5 hPa | 0 mm | - | 89 W/m² | - |
| 1778093335 | 10° C | 99% | 1008.3 hPa | 0 mm | - | 102 W/m² | - |
| 1778093032 | 8.89° C | 99% | 1008.5 hPa | 0 mm | - | 166 W/m² | - |
| 1778091820 | 8.89° C | 99% | 1008.5 hPa | 0 mm | - | 96 W/m² | - |
| 1778089698 | 10° C | 99% | 1008.3 hPa | 0 mm | - | 127 W/m² | - |
| 1778089395 | 9.44° C | 99% | 1008.3 hPa | 0 mm | - | 133 W/m² | - |
| 1778087577 | 10° C | 99% | 1008 hPa | 0 mm | - | 79 W/m² | - |
| 1778087275 | 10° C | 99% | 1007.8 hPa | 0 mm | - | 83 W/m² | - |
| 1778086971 | 10° C | 99% | 1007.7 hPa | 0 mm | - | 111 W/m² | - |
| 1778086367 | 10° C | 99% | 1007.8 hPa | 0 mm | - | 121 W/m² | - |
| 1778078562 | 11.67° C | 99% | 1006.4 hPa | 0 mm | - | 40 W/m² | - |
| 1778077957 | 11.67° C | 99% | 1006.4 hPa | 0 mm | - | 27 W/m² | - |
| 1778077353 | 11.67° C | 99% | 1006.5 hPa | 0 mm | - | 25 W/m² | - |
| 1778077051 | 11.67° C | 99% | 1006.2 hPa | 0 mm | - | 37 W/m² | - |
| 1778076143 | 11.67° C | 99% | 1006.6 hPa | 0 mm | - | 8 W/m² | - |
| 1778075536 | 11.67° C | 99% | 1006.5 hPa | 0 mm | - | 14 W/m² | - |
| 1778074929 | 11.67° C | 99% | 1006 hPa | 0 mm | - | 23 W/m² | - |
* Rain latest hour (hover to see other rain measurements)
** Current wind speed in m/s (hover to see current wind gust speed)